PWSweather.com
Personal Weather Stations
Station Observations
AS787
Cloppers Mill East, Germantown, MD 20874-2154

Cloppers Mill EastGermantown, MD 20874-2154

Lat: 39.1522, Lon: -77.2679

Elevation: 318

Station Type: 1-Wire

http://www.cloppermillweather.org/

High Low Average
Temperature 52.6°F11.4°C 46.2°F7.9°C 48.5°F9.2°C
Dew Point 51.2°F10.7°C 45.4°F7.4°C 47.6°F8.7°C
Winds Calm Calm Calm Calm Calm SCalm S
Wind Gusts 2.0 mph3.2 kmh -- --
Humidity 98% 95% 97%
Pressure 30.09 in1019.0 mb 29.91 in1012.9 mb -
Precipitation 0.00 in0.0 mm - -
Hour Temp Dew Point Humidity Winds Wind Gusts Pressure Precip Precip Rate Daily Precip Total
12:14 AM 46.8°F8.2°C 46.0°F7.8°C 97% Calm Calm -- 30.11 in1019.6 mb 0.00 in0.0 mm 0.00 in0.0 mm 0.00 in0.0 mm
12:44 AM 46.8°F8.2°C 46.0°F7.8°C 97% Calm Calm -- 30.10 in1019.3 mb 0.09 in2.3 mm 0.18 in4.6 mm 0.09 in2.3 mm
01:14 AM 46.7°F8.2°C 45.9°F7.7°C 97% Calm Calm -- 30.09 in1019.0 mb 0.03 in0.8 mm 0.00 in0.0 mm 0.09 in2.3 mm
01:44 AM 46.7°F8.2°C 45.9°F7.7°C 97% Calm Calm -- 30.09 in1019.0 mb 0.03 in0.8 mm 0.00 in0.0 mm 0.09 in2.3 mm
02:14 AM 46.6°F8.1°C 45.8°F7.7°C 97% Calm Calm -- 30.07 in1018.3 mb 0.02 in0.5 mm 0.00 in0.0 mm 0.09 in2.3 mm
02:44 AM 46.6°F8.1°C 45.8°F7.7°C 97% Calm Calm -- 30.05 in1017.6 mb 0.02 in0.5 mm 0.00 in0.0 mm 0.09 in2.3 mm
03:14 AM 46.5°F8.1°C 45.7°F7.6°C 97% Calm Calm -- 30.04 in1017.3 mb 0.00 in0.0 mm 0.00 in0.0 mm 0.09 in2.3 mm
03:44 AM 46.5°F8.1°C 45.7°F7.6°C 97% Calm Calm -- 30.03 in1016.9 mb 0.00 in0.0 mm 0.00 in0.0 mm 0.09 in2.3 mm
04:14 AM 46.5°F8.1°C 45.7°F7.6°C 97% Calm Calm -- 30.02 in1016.6 mb 0.00 in0.0 mm 0.00 in0.0 mm 0.09 in2.3 mm
04:44 AM 46.5°F8.1°C 45.7°F7.6°C 97% Calm Calm -- 30.01 in1016.3 mb 0.00 in0.0 mm 0.00 in0.0 mm 0.09 in2.3 mm
05:14 AM 46.4°F8.0°C 45.6°F7.6°C 97% Calm Calm -- 30.00 in1015.9 mb 0.01 in0.3 mm 0.02 in0.5 mm 0.10 in2.5 mm
05:44 AM 46.4°F8.0°C 45.6°F7.6°C 97% Calm Calm -- 29.98 in1015.2 mb 0.01 in0.3 mm 0.00 in0.0 mm 0.10 in2.5 mm
06:14 AM 46.3°F7.9°C 45.5°F7.5°C 97% Calm Calm -- 29.98 in1015.2 mb 0.00 in0.0 mm 0.00 in0.0 mm 0.10 in2.5 mm
06:44 AM 46.3°F7.9°C 45.5°F7.5°C 97% Calm Calm 2.0 mph3.2 kmh 29.96 in1014.6 mb 0.00 in0.0 mm 0.00 in0.0 mm 0.10 in2.5 mm
07:14 AM 46.2°F7.9°C 45.4°F7.4°C 97% Calm Calm -- 29.95 in1014.2 mb 0.00 in0.0 mm 0.00 in0.0 mm 0.10 in2.5 mm
07:44 AM 46.3°F7.9°C 45.5°F7.5°C 97% Calm Calm -- 29.96 in1014.6 mb 0.00 in0.0 mm 0.00 in0.0 mm 0.10 in2.5 mm
08:14 AM 46.3°F7.9°C 45.5°F7.5°C 97% Calm Calm -- 29.95 in1014.2 mb 0.01 in0.3 mm 0.02 in0.5 mm 0.11 in2.8 mm
08:44 AM 46.2°F7.9°C 45.4°F7.4°C 97% Calm Calm -- 29.96 in1014.6 mb 0.03 in0.8 mm 0.04 in1.0 mm 0.13 in3.3 mm
09:14 AM 46.5°F8.1°C 45.7°F7.6°C 97% Calm Calm -- 30.03 in1016.9 mb 0.03 in0.8 mm 0.00 in0.0 mm 0.13 in3.3 mm
09:44 AM 46.7°F8.2°C 45.9°F7.7°C 97% Calm Calm -- 29.98 in1015.2 mb 0.04 in1.0 mm 0.02 in0.5 mm 0.14 in3.6 mm
10:14 AM 47.4°F8.6°C 46.8°F8.2°C 98% Calm Calm -- 29.98 in1015.2 mb 0.00 in0.0 mm 0.00 in0.0 mm 0.14 in3.6 mm
10:44 AM 47.6°F8.7°C 46.8°F8.2°C 97% Calm Calm -- 29.98 in1015.2 mb 0.01 in0.3 mm 0.02 in0.5 mm 0.15 in3.8 mm
11:14 AM 48.1°F8.9°C 47.3°F8.5°C 97% Calm Calm -- 29.96 in1014.6 mb 0.00 in0.0 mm 0.00 in0.0 mm 0.15 in3.8 mm
11:44 AM 48.0°F8.9°C 47.2°F8.4°C 97% Calm Calm -- 29.92 in1013.2 mb 0.01 in0.3 mm 0.02 in0.5 mm 0.16 in4.1 mm
12:14 PM 47.8°F8.8°C 47.0°F8.3°C 97% Calm Calm -- 29.92 in1013.2 mb 0.00 in0.0 mm 0.00 in0.0 mm 0.16 in4.1 mm
12:44 PM 48.3°F9.1°C 47.5°F8.6°C 97% Calm Calm -- 29.94 in1013.9 mb 0.01 in0.3 mm 0.02 in0.5 mm 0.17 in4.3 mm
01:14 PM 48.8°F9.3°C 48.0°F8.9°C 97% Calm Calm -- 29.94 in1013.9 mb 0.00 in0.0 mm 0.00 in0.0 mm 0.17 in4.3 mm
01:44 PM 49.1°F9.5°C 48.3°F9.1°C 97% Calm Calm -- 29.95 in1014.2 mb 0.00 in0.0 mm 0.00 in0.0 mm 0.17 in4.3 mm
02:14 PM 49.5°F9.7°C 48.7°F9.3°C 97% Calm Calm -- 29.91 in1012.9 mb 0.00 in0.0 mm 0.00 in0.0 mm 0.17 in4.3 mm
02:44 PM 49.9°F9.9°C 49.1°F9.5°C 97% Calm Calm -- 29.93 in1013.5 mb 0.00 in0.0 mm 0.00 in0.0 mm 0.17 in4.3 mm
03:14 PM 50.5°F10.3°C 49.7°F9.8°C 97% Calm Calm -- 29.95 in1014.2 mb 0.00 in0.0 mm 0.00 in0.0 mm 0.17 in4.3 mm
03:44 PM 51.1°F10.6°C 50.0°F10.0°C 96% Calm Calm -- 29.93 in1013.5 mb 0.00 in0.0 mm 0.00 in0.0 mm 0.17 in4.3 mm
04:14 PM 51.6°F10.9°C 50.5°F10.3°C 96% Calm Calm -- 29.93 in1013.5 mb 0.00 in0.0 mm 0.00 in0.0 mm 0.17 in4.3 mm
04:44 PM 52.1°F11.2°C 51.0°F10.6°C 96% Calm Calm -- 29.93 in1013.5 mb 0.00 in0.0 mm 0.00 in0.0 mm 0.17 in4.3 mm
05:14 PM 52.4°F11.3°C 51.0°F10.6°C 95% Calm Calm -- 29.94 in1013.9 mb 0.00 in0.0 mm 0.00 in0.0 mm 0.17 in4.3 mm
05:44 PM 52.6°F11.4°C 51.2°F10.7°C 95% Calm Calm -- 29.93 in1013.5 mb 0.00 in0.0 mm 0.00 in0.0 mm 0.17 in4.3 mm
06:14 PM 52.5°F11.4°C 51.1°F10.6°C 95% Calm Calm -- 29.94 in1013.9 mb 0.00 in0.0 mm 0.00 in0.0 mm 0.17 in4.3 mm
06:44 PM 52.3°F11.3°C 51.0°F10.6°C 95% Calm Calm -- 29.95 in1014.2 mb 0.00 in0.0 mm 0.00 in0.0 mm 0.17 in4.3 mm
07:14 PM 52.0°F11.1°C 50.9°F10.5°C 96% Calm Calm -- 29.98 in1015.2 mb 0.00 in0.0 mm 0.00 in0.0 mm 0.17 in4.3 mm
07:44 PM 51.9°F11.1°C 50.8°F10.4°C 96% Calm Calm -- 29.98 in1015.2 mb 0.00 in0.0 mm 0.00 in0.0 mm 0.17 in4.3 mm
08:14 PM 51.3°F10.7°C 50.2°F10.1°C 96% Calm Calm -- 29.98 in1015.2 mb 0.00 in0.0 mm 0.00 in0.0 mm 0.17 in4.3 mm
08:44 PM 50.6°F10.3°C 49.5°F9.7°C 96% Calm Calm -- 29.99 in1015.6 mb 0.00 in0.0 mm 0.00 in0.0 mm 0.17 in4.3 mm
09:14 PM 50.0°F10.0°C 48.9°F9.4°C 96% Calm Calm -- 30.00 in1015.9 mb 0.00 in0.0 mm 0.00 in0.0 mm 0.17 in4.3 mm
09:44 PM 49.4°F9.7°C 48.3°F9.1°C 96% Calm Calm -- 30.00 in1015.9 mb 0.00 in0.0 mm 0.00 in0.0 mm 0.17 in4.3 mm
10:14 PM 48.9°F9.4°C 47.8°F8.8°C 96% Calm Calm -- 30.00 in1015.9 mb 0.00 in0.0 mm 0.00 in0.0 mm 0.17 in4.3 mm
10:44 PM 48.3°F9.1°C 47.5°F8.6°C 97% Calm Calm -- 30.01 in1016.3 mb 0.00 in0.0 mm 0.00 in0.0 mm 0.17 in4.3 mm
11:14 PM 47.8°F8.8°C 47.0°F8.3°C 97% Calm Calm -- 30.01 in1016.3 mb 0.00 in0.0 mm 0.00 in0.0 mm 0.17 in4.3 mm
11:44 PM 47.5°F8.6°C 46.7°F8.2°C 97% Calm Calm -- 30.01 in1016.3 mb 0.00 in0.0 mm 0.00 in0.0 mm 0.17 in4.3 mm